Time;durP1;ratioP1;P1;durP2;ratioP2;P2;SDS_P1;SDS_P2;PMS_P1;PMS_P2;Temp;Humidity;BMP_temperature;BMP_pressure;BME280_temperature;BME280_humidity;BME280_pressure;Samples;Min_cycle;Max_cycle;Signal;HPM_P1;HPM_P2
2022/03/09 00:00:38;;;;;;;57.20;26.98;;;;;;;-0.70;62.66;99205.94;5111414;28;20213;-74
2022/03/09 00:03:04;;;;;;;57.75;28.35;;;;;;;-0.74;62.81;99208.22;5110787;28;20111;-74
2022/03/09 00:05:29;;;;;;;60.35;29.98;;;;;;;-0.77;62.93;99201.34;5111335;28;20031;-74
2022/03/09 00:07:55;;;;;;;71.55;33.25;;;;;;;-0.77;63.30;99208.63;5111419;28;21373;-74
2022/03/09 00:10:20;;;;;;;65.85;30.65;;;;;;;-0.77;63.22;99214.81;5111904;28;20027;-74
2022/03/09 00:12:45;;;;;;;67.28;31.25;;;;;;;-0.72;63.50;99206.16;5111422;28;20035;-74
2022/03/09 00:15:11;;;;;;;65.75;31.85;;;;;;;-0.62;63.66;99203.91;5092368;28;20020;-74
2022/03/09 00:17:37;;;;;;;75.82;35.60;;;;;;;-0.61;63.44;99204.72;5110173;28;20020;-74
2022/03/09 00:20:04;;;;;;;79.25;35.45;;;;;;;-0.64;63.21;99197.03;5110973;28;20573;-74
2022/03/09 00:22:29;;;;;;;74.00;33.35;;;;;;;-0.63;63.87;99204.94;5111057;28;20030;-74
2022/03/09 00:24:54;;;;;;;81.80;36.78;;;;;;;-0.62;63.78;99201.22;5111146;28;20032;-74
2022/03/09 00:27:20;;;;;;;71.95;33.35;;;;;;;-0.61;63.91;99199.31;5092437;28;20028;-74
2022/03/09 00:29:45;;;;;;;78.53;35.00;;;;;;;-0.58;64.02;99206.16;5110880;28;20027;-74
2022/03/09 00:32:13;;;;;;;81.38;36.00;;;;;;;-0.60;64.33;99203.69;5110733;28;20537;-74
2022/03/09 00:34:39;;;;;;;79.25;36.08;;;;;;;-0.62;64.39;99200.34;5110289;28;20403;-74
2022/03/09 00:37:04;;;;;;;79.03;35.92;;;;;;;-0.64;64.44;99205.13;5110925;28;20034;-74
2022/03/09 00:39:30;;;;;;;84.05;36.78;;;;;;;-0.66;64.53;99199.94;5110884;28;20024;-74
2022/03/09 00:41:55;;;;;;;82.60;37.75;;;;;;;-0.66;64.58;99199.94;5110126;28;20023;-74
2022/03/09 00:44:21;;;;;;;88.93;39.88;;;;;;;-0.67;64.70;99195.59;5110795;28;20025;-74
2022/03/09 00:46:46;;;;;;;84.82;39.10;;;;;;;-0.66;64.65;99191.03;5110918;28;20441;-74
2022/03/09 00:49:11;;;;;;;89.45;39.03;;;;;;;-0.65;65.40;99185.44;5109544;28;20015;-72
2022/03/09 00:51:37;;;;;;;96.30;41.35;;;;;;;-0.62;64.67;99189.59;5091907;28;20094;-71
2022/03/09 00:54:02;;;;;;;84.78;37.58;;;;;;;-0.60;64.68;99182.94;5110774;28;20046;-72
2022/03/09 00:56:28;;;;;;;86.88;36.40;;;;;;;-0.56;65.16;99186.06;5111056;28;20077;-72
2022/03/09 00:58:53;;;;;;;94.75;41.78;;;;;;;-0.53;65.18;99184.81;5110573;28;20418;-72
2022/03/09 01:01:19;;;;;;;85.78;37.65;;;;;;;-0.55;65.21;99185.03;5110616;28;20048;-72
2022/03/09 01:03:44;;;;;;;97.05;41.85;;;;;;;-0.62;65.05;99182.34;5111860;27;20040;-73
2022/03/09 01:06:10;;;;;;;88.47;38.53;;;;;;;-0.67;65.78;99175.91;5110545;28;20079;-72
2022/03/09 01:08:35;;;;;;;96.70;42.20;;;;;;;-0.71;65.30;99186.25;5110029;28;20429;-73
2022/03/09 01:11:00;;;;;;;93.13;40.95;;;;;;;-0.76;65.85;99183.34;5092256;28;20024;-72
2022/03/09 01:13:26;;;;;;;83.18;38.95;;;;;;;-0.70;65.87;99185.22;5110222;28;20107;-72
2022/03/09 01:15:53;;;;;;;81.45;34.05;;;;;;;-0.60;65.77;99182.94;5110348;28;20054;-72
2022/03/09 01:18:19;;;;;;;85.45;36.80;;;;;;;-0.58;65.31;99181.91;5092729;28;20023;-72
2022/03/09 01:20:44;;;;;;;81.43;37.58;;;;;;;-0.58;65.42;99174.66;5109924;28;20015;-72
2022/03/09 01:23:10;;;;;;;77.68;33.55;;;;;;;-0.51;65.46;99177.34;5110256;28;20037;-73
2022/03/09 01:25:35;;;;;;;80.03;35.78;;;;;;;-0.53;65.41;99169.50;5110301;28;20095;-72
2022/03/09 01:28:01;;;;;;;69.65;30.88;;;;;;;-0.51;66.53;99166.59;5109999;28;20035;-72
2022/03/09 01:30:26;;;;;;;75.18;33.15;;;;;;;-0.52;65.56;99163.06;5109710;28;20019;-72
2022/03/09 01:32:51;;;;;;;77.55;36.83;;;;;;;-0.53;65.50;99160.56;5109340;28;20023;-72
2022/03/09 01:35:17;;;;;;;86.25;36.78;;;;;;;-0.58;65.15;99153.13;5109871;28;20802;-72
2022/03/09 01:37:45;;;;;;;79.28;35.28;;;;;;;-0.61;65.23;99151.66;5109885;28;20028;-72
2022/03/09 01:40:11;;;;;;;78.47;34.50;;;;;;;-0.63;65.63;99148.34;5109268;28;20023;-72
2022/03/09 01:42:36;;;;;;;82.13;33.58;;;;;;;-0.62;65.78;99144.63;5109207;28;20022;-73
2022/03/09 01:45:04;;;;;;;76.22;34.22;;;;;;;-0.65;65.79;99142.34;5109847;28;20582;-73
2022/03/09 01:47:30;;;;;;;76.80;33.67;;;;;;;-0.61;66.03;99151.66;5090059;28;20012;-73
2022/03/09 01:49:56;;;;;;;66.05;29.58;;;;;;;-0.58;65.86;99145.03;5109954;28;20016;-73
2022/03/09 01:52:21;;;;;;;71.18;31.27;;;;;;;-0.62;65.97;99150.00;5110464;28;20764;-73
2022/03/09 01:54:46;;;;;;;76.97;34.50;;;;;;;-0.64;66.26;99157.47;5111107;28;20058;-73
2022/03/09 01:57:12;;;;;;;79.25;34.92;;;;;;;-0.68;66.88;99147.28;5110178;28;20433;-73
2022/03/09 01:59:37;;;;;;;76.55;34.80;;;;;;;-0.65;66.49;99139.66;5110323;28;20051;-72
2022/03/09 02:02:03;;;;;;;69.78;30.92;;;;;;;-0.59;66.10;99140.69;5091096;28;20023;-73
2022/03/09 02:04:28;;;;;;;81.43;34.17;;;;;;;-0.64;66.67;99148.53;5111415;27;20387;-73
2022/03/09 02:06:54;;;;;;;72.80;32.97;;;;;;;-0.67;66.78;99139.03;5110239;28;20023;-73
2022/03/09 02:12:04;;;;;;;72.75;32.42;;;;;;;-0.69;66.62;99149.16;5109796;28;20104;-73
2022/03/09 02:14:30;;;;;;;68.75;31.15;;;;;;;-0.68;66.59;99150.00;5110588;28;20071;-73
2022/03/09 02:16:58;;;;;;;75.05;30.83;;;;;;;-0.71;66.87;99139.63;5111347;28;20080;-73
2022/03/09 02:19:24;;;;;;;65.95;29.23;;;;;;;-0.73;66.80;99139.84;5110371;28;20020;-73
2022/03/09 02:21:53;;;;;;;74.55;31.17;;;;;;;-0.73;66.66;99137.16;5109971;28;20031;-73
2022/03/09 02:24:21;;;;;;;70.73;31.43;;;;;;;-0.72;66.64;99143.34;5109803;28;20024;-73
2022/03/09 02:26:46;;;;;;;71.63;31.77;;;;;;;-0.67;66.79;99135.47;5110350;28;20050;-73
2022/03/09 02:29:13;;;;;;;63.55;26.38;;;;;;;-0.59;66.63;99140.69;5109850;28;20032;-73
2022/03/09 02:31:39;;;;;;;72.53;31.52;;;;;;;-0.59;66.99;99140.69;5109716;28;20028;-73
2022/03/09 02:34:04;;;;;;;59.13;28.33;;;;;;;-0.57;66.65;99138.59;5109592;28;20019;-73
2022/03/09 02:36:30;;;;;;;67.05;30.25;;;;;;;-0.57;67.20;99143.16;5109870;28;20047;-73
2022/03/09 02:38:55;;;;;;;64.65;30.30;;;;;;;-0.52;66.79;99136.13;5109595;28;20804;-73
2022/03/09 02:41:20;;;;;;;58.97;29.35;;;;;;;-0.50;66.35;99139.44;5109517;28;20027;-73
2022/03/09 02:43:46;;;;;;;70.13;31.42;;;;;;;-0.57;66.44;99143.16;5109539;28;20104;-74
2022/03/09 02:46:11;;;;;;;58.08;28.85;;;;;;;-0.63;66.65;99136.72;5090365;28;20031;-73
2022/03/09 02:48:36;;;;;;;64.78;30.40;;;;;;;-0.69;66.43;99133.00;5109411;28;20015;-73
2022/03/09 02:51:02;;;;;;;71.07;31.70;;;;;;;-0.68;66.49;99129.28;5109372;28;20081;-73
2022/03/09 02:53:27;;;;;;;57.78;25.73;;;;;;;-0.64;66.54;99129.69;5109030;28;20141;-73
2022/03/09 02:55:53;;;;;;;61.10;28.02;;;;;;;-0.66;66.43;99129.91;5109690;28;20028;-73
2022/03/09 02:58:18;;;;;;;63.75;27.40;;;;;;;-0.67;66.36;99139.03;5109562;28;20020;-74
2022/03/09 03:00:44;;;;;;;62.58;27.00;;;;;;;-0.67;66.51;99125.56;5109153;28;20399;-74
2022/03/09 03:03:09;;;;;;;61.22;27.77;;;;;;;-0.69;66.56;99126.78;5108731;28;20391;-74
2022/03/09 03:05:34;;;;;;;64.90;30.33;;;;;;;-0.70;66.90;99125.13;5109469;28;20030;-73
2022/03/09 03:08:00;;;;;;;65.03;29.83;;;;;;;-0.68;66.57;99114.97;5109361;28;20069;-74
2022/03/09 03:10:25;;;;;;;66.93;29.40;;;;;;;-0.65;67.05;99114.56;5109171;28;20024;-74
2022/03/09 03:12:50;;;;;;;66.18;28.95;;;;;;;-0.66;66.47;99118.28;5111134;28;20031;-74
2022/03/09 03:15:16;;;;;;;58.47;28.35;;;;;;;-0.66;67.00;99123.69;5113990;28;20023;-73
2022/03/09 03:17:41;;;;;;;63.15;29.17;;;;;;;-0.69;66.99;99124.09;5113896;28;20114;-73
2022/03/09 03:20:07;;;;;;;58.45;27.92;;;;;;;-0.79;67.08;99128.00;5113789;28;20387;-74
2022/03/09 03:22:33;;;;;;;63.15;27.85;;;;;;;-0.86;66.74;99131.72;5094903;28;20034;-72
2022/03/09 03:24:59;;;;;;;59.15;28.00;;;;;;;-0.94;66.63;99128.19;5113908;28;20094;-72
2022/03/09 03:27:25;;;;;;;62.20;29.30;;;;;;;-0.98;66.98;99135.03;5113366;28;20114;-72
2022/03/09 03:29:50;;;;;;;58.58;28.23;;;;;;;-1.00;67.13;99137.09;5092158;28;20510;-72
2022/03/09 03:32:15;;;;;;;56.38;26.85;;;;;;;-1.03;67.21;99128.59;5112966;28;20046;-73
2022/03/09 03:34:41;;;;;;;55.30;27.35;;;;;;;-1.04;67.08;99133.16;5112771;28;20077;-74
2022/03/09 03:37:06;;;;;;;55.20;26.60;;;;;;;-1.02;66.88;99136.50;5112871;28;20035;-73
2022/03/09 03:39:32;;;;;;;54.55;26.17;;;;;;;-1.01;67.46;99134.63;5110177;28;20023;-73
2022/03/09 03:41:58;;;;;;;55.50;25.52;;;;;;;-1.02;67.16;99133.78;5111112;28;20031;-72
2022/03/09 03:44:23;;;;;;;61.42;27.25;;;;;;;-1.04;66.80;99138.56;5110005;28;20036;-73
2022/03/09 03:46:48;;;;;;;57.83;26.45;;;;;;;-1.02;66.90;99138.34;5109344;28;20073;-73
2022/03/09 03:49:14;;;;;;;53.45;24.00;;;;;;;-0.98;67.00;99128.81;5110563;28;20043;-72
2022/03/09 03:51:39;;;;;;;53.97;25.88;;;;;;;-0.95;67.37;99129.22;5110450;28;20023;-72
2022/03/09 03:54:05;;;;;;;54.17;25.27;;;;;;;-0.87;67.05;99128.22;5110243;28;20032;-73
2022/03/09 03:56:30;;;;;;;56.33;27.73;;;;;;;-0.84;67.19;99133.19;5110438;28;20053;-73
2022/03/09 03:58:56;;;;;;;51.92;24.98;;;;;;;-0.75;67.48;99133.81;5111109;28;20031;-73
2022/03/09 04:01:21;;;;;;;50.03;25.58;;;;;;;-0.64;67.19;99137.78;5112148;28;20078;-73
2022/03/09 04:03:46;;;;;;;61.10;25.70;;;;;;;-0.58;67.20;99142.34;5111279;28;20403;-73
2022/03/09 04:06:12;;;;;;;56.35;25.33;;;;;;;-0.52;67.44;99140.66;5112080;28;20027;-73
2022/03/09 04:08:37;;;;;;;65.43;29.55;;;;;;;-0.47;67.25;99138.19;5111817;28;20019;-73
2022/03/09 04:11:03;;;;;;;61.90;27.25;;;;;;;-0.37;67.12;99135.91;5112181;28;20023;-73
2022/03/09 04:13:28;;;;;;;51.92;24.25;;;;;;;-0.32;67.36;99136.13;5112278;28;20023;-73
2022/03/09 04:15:53;;;;;;;61.58;26.10;;;;;;;-0.37;67.20;99140.47;5112916;28;20069;-72
2022/03/09 04:18:19;;;;;;;61.10;28.27;;;;;;;-0.41;67.17;99147.31;5112889;28;20023;-73
2022/03/09 04:20:44;;;;;;;66.30;30.50;;;;;;;-0.43;67.54;99144.00;5112482;28;20111;-73
2022/03/09 04:23:10;;;;;;;57.45;26.50;;;;;;;-0.48;67.43;99152.69;5111485;28;20452;-73
2022/03/09 04:25:37;;;;;;;56.00;26.40;;;;;;;-0.48;67.49;99142.75;5111851;28;20028;-73
2022/03/09 04:28:03;;;;;;;70.35;31.50;;;;;;;-0.43;67.56;99152.09;5112712;28;20035;-73
2022/03/09 04:30:28;;;;;;;57.25;26.23;;;;;;;-0.39;67.45;99151.47;5113056;28;20103;-73
2022/03/09 04:32:54;;;;;;;56.70;25.98;;;;;;;-0.39;67.09;99151.47;5093832;28;20046;-73
2022/03/09 04:35:19;;;;;;;58.80;26.52;;;;;;;-0.38;67.17;99153.13;5112384;28;20464;-73
2022/03/09 04:37:45;;;;;;;56.53;26.95;;;;;;;-0.37;66.99;99162.03;5112107;28;20031;-73
2022/03/09 04:40:11;;;;;;;62.72;27.33;;;;;;;-0.37;67.15;99164.72;5093739;28;20023;-73
2022/03/09 04:42:37;;;;;;;58.38;27.48;;;;;;;-0.33;67.09;99166.81;5112142;28;20087;-73
2022/03/09 04:45:03;;;;;;;63.13;27.88;;;;;;;-0.33;67.32;99172.19;5112251;28;20106;-72
2022/03/09 04:47:28;;;;;;;59.50;27.55;;;;;;;-0.31;67.37;99167.44;5112443;28;20027;-73
2022/03/09 04:49:53;;;;;;;58.50;27.40;;;;;;;-0.28;67.29;99163.47;5112110;28;20032;-73
2022/03/09 04:52:19;;;;;;;56.72;27.95;;;;;;;-0.27;67.73;99167.00;5111653;28;20055;-73
2022/03/09 04:54:46;;;;;;;58.03;28.23;;;;;;;-0.26;67.29;99165.97;5112117;28;20069;-73
2022/03/09 04:57:12;;;;;;;54.88;25.52;;;;;;;-0.22;67.28;99159.13;5111778;28;20576;-73
2022/03/09 04:59:37;;;;;;;55.05;26.55;;;;;;;-0.24;67.21;99164.72;5111755;28;20044;-73
2022/03/09 05:02:03;;;;;;;59.90;25.67;;;;;;;-0.25;67.14;99160.38;5111669;28;20031;-73
2022/03/09 05:04:28;;;;;;;62.92;29.02;;;;;;;-0.22;66.90;99167.22;5111277;28;20054;-73
2022/03/09 05:06:55;;;;;;;63.80;26.35;;;;;;;-0.19;67.14;99159.53;5111501;28;20027;-73
2022/03/09 05:09:20;;;;;;;64.78;27.30;;;;;;;-0.21;67.05;99152.72;5111913;28;20016;-73
2022/03/09 05:11:46;;;;;;;54.53;24.50;;;;;;;-0.22;67.03;99162.66;5111189;28;20081;-73
2022/03/09 05:14:11;;;;;;;53.72;26.35;;;;;;;-0.18;67.34;99171.13;5111773;28;20031;-73
2022/03/09 05:16:36;;;;;;;58.08;27.90;;;;;;;-0.11;67.45;99165.75;5111413;28;20024;-73
2022/03/09 05:19:02;;;;;;;57.75;27.52;;;;;;;-0.08;67.35;99163.47;5111561;28;20027;-72
2022/03/09 05:21:28;;;;;;;54.88;25.85;;;;;;;-0.07;67.15;99167.00;5110769;28;20440;-73
2022/03/09 05:23:53;;;;;;;55.15;26.33;;;;;;;-0.05;67.05;99163.03;5110615;28;20513;-73
2022/03/09 05:26:18;;;;;;;59.45;26.77;;;;;;;-0.06;67.11;99161.38;5110962;28;20031;-73
2022/03/09 05:28:44;;;;;;;51.33;24.98;;;;;;;-0.11;66.92;99171.97;5111048;28;20022;-73
2022/03/09 05:31:09;;;;;;;46.95;24.35;;;;;;;-0.10;67.26;99159.31;5110484;28;20027;-73
2022/03/09 05:33:34;;;;;;;51.30;25.35;;;;;;;-0.12;66.79;99156.81;5110796;28;20028;-73
2022/03/09 05:36:00;;;;;;;57.47;28.05;;;;;;;-0.12;67.77;99162.22;5110916;28;20106;-73
2022/03/09 05:38:25;;;;;;;53.72;25.15;;;;;;;-0.11;67.30;99157.66;5092708;28;20026;-73
2022/03/09 05:40:51;;;;;;;52.03;24.85;;;;;;;-0.18;67.32;99153.09;5110726;28;20124;-73
2022/03/09 05:43:16;;;;;;;58.75;27.20;;;;;;;-0.23;67.53;99161.00;5110390;28;20020;-73
2022/03/09 05:45:41;;;;;;;50.38;25.52;;;;;;;-0.25;67.77;99151.47;5110349;28;20027;-73
2022/03/09 05:48:07;;;;;;;45.63;23.92;;;;;;;-0.25;67.47;99165.75;5110287;28;20106;-73
2022/03/09 05:50:32;;;;;;;54.20;25.75;;;;;;;-0.19;67.54;99164.09;5110072;28;20018;-73
2022/03/09 05:52:57;;;;;;;46.90;22.80;;;;;;;-0.17;67.30;99159.31;5109979;28;20019;-73
2022/03/09 05:55:23;;;;;;;46.45;23.42;;;;;;;-0.18;67.62;99173.84;5110272;28;20057;-73
2022/03/09 05:57:48;;;;;;;43.05;23.25;;;;;;;-0.18;67.85;99165.75;5110325;28;20073;-72
2022/03/09 06:00:15;;;;;;;48.88;23.52;;;;;;;-0.11;67.65;99168.47;5110301;28;20088;-72
2022/03/09 06:02:41;;;;;;;51.28;24.13;;;;;;;-0.09;67.39;99164.50;5077560;28;20392;-73
2022/03/09 06:05:07;;;;;;;57.97;27.13;;;;;;;-0.03;67.67;99166.38;5110409;28;20059;-72
2022/03/09 06:07:33;;;;;;;58.22;29.92;;;;;;;0.06;67.42;99166.16;5108417;28;20038;-73
2022/03/09 06:09:59;;;;;;;60.40;28.77;;;;;;;0.09;67.78;99169.25;5109709;28;20027;-72
2022/03/09 06:12:24;;;;;;;47.42;23.80;;;;;;;0.14;67.77;99166.75;5111195;28;20399;-73
2022/03/09 06:14:50;;;;;;;49.00;23.08;;;;;;;0.22;67.68;99165.69;5111440;28;20027;-73
2022/03/09 06:17:15;;;;;;;51.13;23.20;;;;;;;0.29;67.75;99158.41;5111489;28;20567;-73
2022/03/09 06:19:41;;;;;;;50.30;22.63;;;;;;;0.44;67.76;99158.16;5111263;28;20482;-73
2022/03/09 06:22:06;;;;;;;68.25;27.55;;;;;;;0.52;67.52;99164.38;5111558;28;20024;-73
2022/03/09 06:24:31;;;;;;;98.55;36.95;;;;;;;0.50;66.85;99156.50;5111288;28;20023;-73
2022/03/09 06:26:57;;;;;;;110.28;38.42;;;;;;;0.50;67.24;99169.16;5111592;27;20054;-73
2022/03/09 06:29:22;;;;;;;98.65;39.25;;;;;;;0.46;66.87;99166.06;5111287;27;20040;-73
2022/03/09 06:31:48;;;;;;;94.95;36.03;;;;;;;0.44;66.88;99162.75;5112787;27;20031;-74
2022/03/09 06:34:13;;;;;;;78.60;33.38;;;;;;;0.41;66.94;99163.16;5110072;27;20477;-74
2022/03/09 06:36:43;;;;;;;72.68;30.00;;;;;;;0.34;66.76;99162.34;5111889;27;20472;-73
2022/03/09 06:39:09;;;;;;;77.63;30.08;;;;;;;0.37;66.78;99164.63;5091049;28;20035;-73
2022/03/09 06:41:35;;;;;;;60.75;26.92;;;;;;;0.38;66.79;99167.13;5110168;28;20031;-73
2022/03/09 06:44:00;;;;;;;57.45;25.90;;;;;;;0.43;67.28;99172.69;5110566;28;20039;-74
2022/03/09 06:46:26;;;;;;;73.88;28.20;;;;;;;0.46;66.94;99176.84;5109277;28;20031;-74
2022/03/09 06:48:51;;;;;;;65.55;27.00;;;;;;;0.54;67.10;99173.91;5109414;28;20034;-73
2022/03/09 06:51:17;;;;;;;63.50;27.45;;;;;;;0.62;67.09;99188.19;5113029;27;20368;-73
2022/03/09 06:53:44;;;;;;;53.47;23.60;;;;;;;0.72;66.79;99175.09;5114880;27;20386;-74
2022/03/09 06:56:10;;;;;;;50.83;21.95;;;;;;;0.76;66.79;99179.03;5112970;27;20446;-73
2022/03/09 06:58:35;;;;;;;48.42;23.50;;;;;;;0.79;66.72;99181.28;5112336;28;20061;-73
2022/03/09 07:01:00;;;;;;;43.90;21.45;;;;;;;0.90;67.09;99182.47;5090464;28;20101;-73
2022/03/09 07:03:27;;;;;;;47.35;22.33;;;;;;;0.94;66.77;99181.00;5108851;28;20062;-74
2022/03/09 07:05:54;;;;;;;47.88;23.63;;;;;;;0.98;66.86;99182.25;5110783;28;20032;-73
2022/03/09 07:08:19;;;;;;;46.90;22.40;;;;;;;1.03;67.07;99178.88;5103433;28;20045;-74
2022/03/09 07:10:46;;;;;;;54.90;24.08;;;;;;;1.06;66.30;99175.75;5109814;28;20098;-73
2022/03/09 07:13:11;;;;;;;54.63;25.55;;;;;;;1.08;66.50;99176.38;5110029;28;20039;-74
2022/03/09 07:15:36;;;;;;;52.17;22.73;;;;;;;1.16;66.58;99183.41;5108537;28;20024;-75
2022/03/09 07:18:02;;;;;;;39.33;19.05;;;;;;;1.27;67.09;99184.59;5105057;28;20480;-74
2022/03/09 07:20:27;;;;;;;59.92;26.67;;;;;;;1.34;66.51;99180.78;5107909;28;20015;-73
2022/03/09 07:22:53;;;;;;;46.42;23.75;;;;;;;1.41;66.15;99175.34;5107067;28;20426;-73
2022/03/09 07:25:18;;;;;;;41.05;20.85;;;;;;;1.47;66.01;99182.56;5110126;28;20019;-74
2022/03/09 07:27:44;;;;;;;41.97;21.73;;;;;;;1.55;66.12;99172.53;5109084;28;20068;-76
2022/03/09 07:30:10;;;;;;;47.88;24.50;;;;;;;1.64;65.81;99180.16;5106516;28;20470;-73
2022/03/09 07:32:36;;;;;;;43.00;21.75;;;;;;;1.68;65.83;99182.41;5105987;28;20039;-75
2022/03/09 07:35:01;;;;;;;44.72;22.75;;;;;;;1.66;65.17;99179.94;5089732;28;20024;-74
2022/03/09 07:37:26;;;;;;;47.10;23.08;;;;;;;1.64;65.23;99173.94;5100546;28;20092;-74
2022/03/09 07:39:53;;;;;;;48.45;21.42;;;;;;;1.65;65.46;99175.59;5112655;28;20699;-74
2022/03/09 07:42:19;;;;;;;52.65;25.42;;;;;;;1.68;65.32;99177.84;5105922;28;20036;-74
2022/03/09 07:44:44;;;;;;;47.60;23.45;;;;;;;1.73;65.20;99178.03;5109775;28;20030;-74
2022/03/09 07:47:10;;;;;;;46.08;22.17;;;;;;;1.82;65.42;99175.03;5106897;28;20036;-75
2022/03/09 07:49:37;;;;;;;49.28;23.25;;;;;;;1.89;65.73;99173.94;5108741;28;20034;-74
2022/03/09 07:52:05;;;;;;;48.85;23.33;;;;;;;1.98;65.30;99176.38;5109434;28;20020;-80
2022/03/09 07:54:31;;;;;;;54.42;26.65;;;;;;;2.04;65.11;99176.28;5109894;28;20024;-74
2022/03/09 07:56:57;;;;;;;54.63;24.70;;;;;;;2.01;64.73;99171.31;5109000;28;20116;-77
2022/03/09 07:59:22;;;;;;;53.28;25.80;;;;;;;2.03;64.96;99184.66;5117786;27;20489;-77
2022/03/09 08:01:52;;;;;;;53.28;24.65;;;;;;;2.06;65.04;99184.16;5112704;27;20031;-77
2022/03/09 08:04:19;;;;;;;51.72;26.75;;;;;;;2.14;65.05;99185.78;5106710;28;20381;-74
2022/03/09 08:06:47;;;;;;;49.53;22.70;;;;;;;2.28;64.81;99187.28;5112689;27;20031;-74
2022/03/09 08:09:12;;;;;;;39.70;19.25;;;;;;;2.40;64.98;99182.00;5111447;28;20038;-75
2022/03/09 08:11:38;;;;;;;45.83;23.63;;;;;;;2.46;63.98;99181.06;5110670;28;20391;-75
2022/03/09 08:14:03;;;;;;;50.15;23.48;;;;;;;2.46;64.21;99177.53;5112604;28;20053;-77
2022/03/09 08:16:29;;;;;;;82.65;30.92;;;;;;;2.47;63.16;99181.91;5109645;28;20042;-78
2022/03/09 08:18:54;;;;;;;64.60;28.48;;;;;;;2.52;63.42;99176.66;5114111;27;20043;-79
2022/03/09 08:21:19;;;;;;;47.88;23.70;;;;;;;2.61;63.94;99178.00;5091171;28;20050;-78
2022/03/09 08:23:45;;;;;;;50.95;23.33;;;;;;;2.65;63.45;99181.88;5115311;27;20074;-78
2022/03/09 08:26:10;;;;;;;44.63;22.17;;;;;;;2.79;63.37;99184.44;5111346;28;20038;-79
2022/03/09 08:28:35;;;;;;;46.33;23.85;;;;;;;2.92;63.23;99189.72;5112862;27;20040;-80
2022/03/09 08:31:01;;;;;;;44.33;23.58;;;;;;;3.06;63.96;99189.50;5113233;28;20673;-77
2022/03/09 08:33:27;;;;;;;59.25;27.45;;;;;;;3.20;62.73;99184.78;5111305;27;20039;-79
2022/03/09 08:35:53;;;;;;;54.72;23.42;;;;;;;3.28;62.37;99193.41;5111175;28;20089;-79
2022/03/09 08:38:18;;;;;;;47.60;24.25;;;;;;;3.33;61.96;99183.75;5112285;28;20040;-78
2022/03/09 08:40:44;;;;;;;52.28;23.65;;;;;;;3.41;62.22;99189.66;5113248;27;20030;-79
2022/03/09 08:43:10;;;;;;;48.45;23.17;;;;;;;3.47;61.67;99189.78;5111347;28;20024;-79
2022/03/09 08:45:36;;;;;;;58.78;26.02;;;;;;;3.50;61.54;99194.75;5113229;28;20027;-79
2022/03/09 08:48:01;;;;;;;47.97;22.20;;;;;;;3.56;62.14;99189.22;5111002;27;20036;-79
2022/03/09 08:50:27;;;;;;;42.67;21.70;;;;;;;3.64;61.80;99185.38;5111208;27;20051;-78
2022/03/09 08:52:52;;;;;;;39.63;19.90;;;;;;;3.69;60.69;99187.38;5111609;27;20492;-75
2022/03/09 08:55:18;;;;;;;41.08;20.15;;;;;;;3.78;60.54;99188.69;5111948;28;20080;-79
2022/03/09 08:57:43;;;;;;;40.35;21.02;;;;;;;3.92;61.14;99183.03;5113109;27;20170;-77
2022/03/09 09:00:09;;;;;;;37.45;19.38;;;;;;;4.04;61.35;99185.78;5111954;28;20423;-77
2022/03/09 09:02:34;;;;;;;39.40;20.10;;;;;;;4.12;61.00;99191.66;5112051;28;20748;-79
2022/03/09 09:05:00;;;;;;;42.28;20.48;;;;;;;4.16;59.71;99186.59;5109566;28;20028;-77
2022/03/09 09:07:25;;;;;;;39.25;19.63;;;;;;;4.28;60.04;99179.28;5110666;28;20502;-79
2022/03/09 09:09:51;;;;;;;34.78;18.05;;;;;;;4.37;59.11;99185.16;5110757;27;20024;-76
2022/03/09 09:12:17;;;;;;;30.30;16.17;;;;;;;4.48;58.86;99175.38;5111131;28;20023;-73
2022/03/09 09:14:42;;;;;;;33.05;16.27;;;;;;;4.55;57.02;99172.50;5111148;28;20023;-77
2022/03/09 09:17:08;;;;;;;31.00;16.08;;;;;;;4.62;59.09;99184.09;5093660;27;20023;-75
2022/03/09 09:19:33;;;;;;;30.67;13.63;;;;;;;4.67;55.96;99176.03;5113768;27;20039;-76
2022/03/09 09:22:00;;;;;;;36.00;15.90;;;;;;;4.69;56.60;99176.59;5105186;27;20019;-78
2022/03/09 09:24:25;;;;;;;38.83;21.15;;;;;;;4.85;57.44;99179.66;5111616;28;20404;-77
2022/03/09 09:26:51;;;;;;;30.52;15.23;;;;;;;4.97;55.56;99174.16;5111133;28;20027;-77
2022/03/09 09:29:16;;;;;;;24.83;13.63;;;;;;;4.98;54.73;99167.66;5108938;28;20115;-84
2022/03/09 09:31:41;;;;;;;27.70;14.02;;;;;;;4.95;52.78;99168.97;5110739;28;20050;-74
2022/03/09 09:34:08;;;;;;;31.25;16.48;;;;;;;4.96;52.21;99170.63;5109543;28;20086;-77
2022/03/09 09:36:35;;;;;;;28.70;16.23;;;;;;;4.94;51.62;99161.91;5103771;28;20143;-73
2022/03/09 09:39:01;;;;;;;32.85;16.50;;;;;;;4.98;51.38;99168.50;5109286;28;20069;-75
2022/03/09 09:41:28;;;;;;;28.30;14.00;;;;;;;5.07;52.08;99167.06;5106618;28;20116;-71
2022/03/09 09:43:53;;;;;;;24.17;12.43;;;;;;;5.15;51.50;99165.00;5110182;28;20112;-76
2022/03/09 09:46:19;;;;;;;22.35;12.07;;;;;;;5.12;49.11;99166.31;5114726;27;20146;-75
2022/03/09 09:48:44;;;;;;;22.23;12.20;;;;;;;4.99;48.73;99167.44;5107391;27;20028;-75
2022/03/09 09:51:12;;;;;;;30.60;12.68;;;;;;;4.90;48.99;99168.88;5107597;27;20479;-76
2022/03/09 09:53:41;;;;;;;31.52;14.05;;;;;;;4.86;49.69;99167.72;5109888;28;20031;-78
2022/03/09 09:56:07;;;;;;;30.38;13.70;;;;;;;4.82;48.90;99177.41;5110881;28;20031;-77
2022/03/09 09:58:33;;;;;;;29.13;13.27;;;;;;;4.76;48.47;99166.44;5110589;28;20020;-72
2022/03/09 10:00:59;;;;;;;28.63;13.88;;;;;;;4.74;49.06;99168.56;5109106;28;20055;-72
2022/03/09 10:03:24;;;;;;;22.65;12.82;;;;;;;4.72;49.02;99178.84;5108705;28;20028;-74
2022/03/09 10:05:50;;;;;;;25.08;13.35;;;;;;;4.75;49.62;99163.97;5094254;28;20027;-77
2022/03/09 10:08:18;;;;;;;22.08;11.27;;;;;;;4.81;48.30;99170.31;5111432;28;20042;-78
2022/03/09 10:10:53;;;;;;;24.00;12.77;;;;;;;4.82;48.76;99166.53;5111158;28;20523;-79
2022/03/09 10:13:22;;;;;;;25.65;12.73;;;;;;;4.83;47.72;99166.31;5110629;28;20020;-79
2022/03/09 10:16:10;;;;;;;28.73;13.57;;;;;;;4.89;49.32;99159.88;5111601;28;20429;-78
2022/03/09 10:18:36;;;;;;;28.67;13.02;;;;;;;4.98;47.86;99163.06;5101238;28;20043;-78
2022/03/09 10:21:28;;;;;;;27.42;12.43;;;;;;;5.02;47.81;99150.63;5110107;28;20019;-79
2022/03/09 10:24:03;;;;;;;25.70;12.65;;;;;;;5.07;49.21;99145.31;5101012;28;20035;-74
2022/03/09 10:26:49;;;;;;;23.77;11.85;;;;;;;5.19;47.63;99152.56;5106383;27;20023;-76
2022/03/09 10:29:17;;;;;;;27.75;13.40;;;;;;;5.20;46.08;99151.50;5103708;27;20152;-74
2022/03/09 10:31:45;;;;;;;25.42;13.25;;;;;;;5.25;47.02;99142.63;5092621;27;20050;-75
2022/03/09 10:34:13;;;;;;;32.22;13.80;;;;;;;5.38;46.57;99155.09;5108710;28;20050;-75
2022/03/09 10:36:59;;;;;;;22.85;11.77;;;;;;;5.41;45.40;99146.44;5111768;27;20107;-78
2022/03/09 10:39:36;;;;;;;26.55;13.45;;;;;;;5.38;45.67;99145.00;5112853;27;20036;-77
2022/03/09 10:42:03;;;;;;;38.80;17.90;;;;;;;5.40;46.00;99142.88;5110133;28;20039;-78
2022/03/09 10:44:47;;;;;;;28.70;13.95;;;;;;;5.47;45.64;99142.75;5111850;27;20102;-79
2022/03/09 10:47:28;;;;;;;23.45;12.38;;;;;;;5.52;45.28;99148.25;5110493;28;20028;-77
2022/03/09 10:50:07;;;;;;;26.30;14.00;;;;;;;5.54;45.39;99150.72;5110063;27;20034;-77
2022/03/09 10:52:51;;;;;;;26.50;13.50;;;;;;;5.57;45.95;99139.34;5110089;28;20031;-77
2022/03/09 10:55:19;;;;;;;28.70;14.27;;;;;;;5.71;45.84;99137.94;5110343;28;20095;-76
2022/03/09 10:57:45;;;;;;;30.85;15.75;;;;;;;5.86;45.44;99134.66;5109681;27;20019;-75
2022/03/09 11:00:11;;;;;;;34.78;17.70;;;;;;;6.03;46.03;99137.41;5110458;28;20050;-77
2022/03/09 11:02:48;;;;;;;23.55;13.48;;;;;;;6.27;44.31;99139.09;5110144;28;20023;-74
2022/03/09 11:05:14;;;;;;;27.55;14.45;;;;;;;6.49;44.63;99130.94;5089575;28;20020;-75
2022/03/09 11:07:41;;;;;;;26.80;13.70;;;;;;;6.80;43.84;99132.13;5111684;28;20024;-77
2022/03/09 11:10:08;;;;;;;22.02;13.85;;;;;;;7.05;43.10;99125.34;5110535;28;20042;-76
2022/03/09 11:12:35;;;;;;;29.42;16.50;;;;;;;7.26;41.84;99129.09;5110263;28;20064;-75
2022/03/09 11:15:01;;;;;;;20.77;11.35;;;;;;;7.35;40.30;99121.25;5110335;28;20028;-76
2022/03/09 11:17:27;;;;;;;19.55;11.27;;;;;;;7.43;40.39;99125.41;5110588;28;20034;-75
2022/03/09 11:19:53;;;;;;;45.13;22.85;;;;;;;7.48;41.67;99128.19;5110790;28;20535;-76